createdAt,value
2023-01-17T00:00:06.356Z,99639.53
2023-01-17T00:05:27.547Z,99633.16
2023-01-17T00:10:30.695Z,99662.78
2023-01-17T00:15:35.239Z,99651.94
2023-01-17T00:20:55.980Z,99695.91
2023-01-17T00:26:04.931Z,99670.91
2023-01-17T00:31:09.834Z,99658.72
2023-01-17T00:36:12.015Z,99672.13
2023-01-17T00:41:15.312Z,99649.75
2023-01-17T00:46:38.204Z,99644.13
2023-01-17T00:51:58.667Z,99638.63
2023-01-17T00:57:19.722Z,99619.38
2023-01-17T01:02:42.791Z,99602.59
2023-01-17T01:08:03.429Z,99572.97
2023-01-17T01:13:23.838Z,99549.06
2023-01-17T01:18:45.961Z,99523.56
2023-01-17T01:24:06.453Z,99538.59
2023-01-17T01:29:26.932Z,99531.44
2023-01-17T01:34:31.469Z,99554.81
2023-01-17T01:39:34.664Z,99546.69
2023-01-17T01:44:46.378Z,99535.56
2023-01-17T01:49:52.022Z,99520.84
2023-01-17T01:54:59.752Z,99496.78
2023-01-17T02:00:06.861Z,99476.00
2023-01-17T02:05:14.326Z,99476.84
2023-01-17T02:10:17.719Z,99454.38
2023-01-17T02:15:25.254Z,99435.13
2023-01-17T02:21:22.885Z,99435.88
2023-01-17T02:26:46.953Z,99437.41
2023-01-17T02:31:57.013Z,99477.22
2023-01-17T02:37:05.953Z,99475.44
2023-01-17T02:42:15.343Z,99541.50
2023-01-17T02:47:24.819Z,99553.13
2023-01-17T02:52:50.868Z,99539.56
2023-01-17T02:58:07.735Z,99565.22
2023-01-17T03:03:22.073Z,99569.91
2023-01-17T03:08:26.670Z,99542.19
2023-01-17T03:13:29.816Z,99548.50
2023-01-17T03:18:34.571Z,99558.50
2023-01-17T03:23:37.729Z,99557.09
2023-01-17T03:28:42.424Z,99558.50
2023-01-17T03:33:47.062Z,99575.38
2023-01-17T03:38:50.194Z,99567.88
2023-01-17T03:43:53.303Z,99556.91
2023-01-17T03:48:57.842Z,99554.56
2023-01-17T03:54:02.002Z,99547.19
2023-01-17T03:59:05.157Z,99518.31
2023-01-17T04:04:09.709Z,99520.00
2023-01-17T04:09:12.823Z,99518.94
2023-01-17T04:14:15.935Z,99504.81
2023-01-17T04:19:20.546Z,99495.28
2023-01-17T04:24:23.673Z,99491.50
2023-01-17T04:29:26.903Z,99482.91
2023-01-17T04:34:31.427Z,99479.53
2023-01-17T04:39:34.597Z,99520.50
2023-01-17T04:44:37.715Z,99545.09
2023-01-17T04:49:44.061Z,99543.59
2023-01-17T04:54:49.515Z,99553.25
2023-01-17T04:59:53.659Z,99560.38
2023-01-17T05:04:58.229Z,99561.38
2023-01-17T05:10:02.106Z,99558.81
2023-01-17T05:15:06.089Z,99568.25
2023-01-17T05:20:12.234Z,99570.28
2023-01-17T05:25:15.483Z,99567.56
2023-01-17T05:30:19.331Z,99563.81
2023-01-17T05:35:26.355Z,99575.31
2023-01-17T05:40:31.185Z,99571.94
2023-01-17T05:45:35.376Z,99572.84
2023-01-17T05:50:40.158Z,99568.94
2023-01-17T05:55:43.797Z,99567.56
2023-01-17T06:00:47.638Z,99556.97
2023-01-17T06:05:52.213Z,99567.75
2023-01-17T06:10:55.365Z,99563.44
2023-01-17T06:16:02.942Z,99574.41
2023-01-17T06:21:07.811Z,99575.25
2023-01-17T06:26:11.080Z,99576.63
2023-01-17T06:31:14.271Z,99577.22
2023-01-17T06:36:18.993Z,99597.28
2023-01-17T06:41:23.337Z,99587.41
2023-01-17T06:46:26.519Z,99589.78
2023-01-17T06:51:31.081Z,99608.31
2023-01-17T06:56:34.834Z,99608.16
2023-01-17T07:01:38.071Z,99616.66
2023-01-17T07:06:42.664Z,99642.06
2023-01-17T07:11:45.812Z,99642.94
2023-01-17T07:16:50.190Z,99641.84
2023-01-17T07:21:55.362Z,99659.78
2023-01-17T07:26:58.480Z,99647.25
2023-01-17T07:32:03.330Z,99638.22
2023-01-17T07:37:08.206Z,99653.31
2023-01-17T07:42:11.310Z,99658.41
2023-01-17T07:47:14.457Z,99657.81
2023-01-17T07:52:18.956Z,99670.81
2023-01-17T07:57:22.253Z,99676.50
2023-01-17T08:02:25.429Z,99692.38
2023-01-17T08:07:29.991Z,99694.75
2023-01-17T08:12:34.191Z,99712.22
2023-01-17T08:17:37.284Z,99723.38
2023-01-17T08:22:41.806Z,99715.34
2023-01-17T08:27:44.938Z,99735.53
2023-01-17T08:32:48.110Z,99708.00
2023-01-17T08:37:56.469Z,99698.97
2023-01-17T08:43:01.563Z,99718.53
2023-01-17T08:48:04.420Z,99702.91
2023-01-17T08:53:08.979Z,99710.09
2023-01-17T08:58:12.104Z,99725.72
2023-01-17T09:03:15.207Z,99748.13
2023-01-17T09:08:19.730Z,99756.50
2023-01-17T09:13:22.847Z,99735.25
2023-01-17T09:18:26.002Z,99736.84
2023-01-17T09:23:31.671Z,99734.50
2023-01-17T09:28:41.093Z,99729.66
2023-01-17T09:33:44.231Z,99750.53
2023-01-17T09:38:48.999Z,99747.13
2023-01-17T09:43:56.693Z,99749.06
2023-01-17T09:49:05.965Z,99747.19
2023-01-17T09:54:21.701Z,99769.03
2023-01-17T09:59:35.828Z,99764.38
2023-01-17T10:04:55.689Z,99755.03
2023-01-17T10:10:14.421Z,99765.38
2023-01-17T10:15:44.106Z,99770.59
2023-01-17T10:20:53.088Z,99762.16
2023-01-17T10:26:01.310Z,99750.88
2023-01-17T10:31:07.526Z,99732.91
2023-01-17T10:36:16.511Z,99745.13
2023-01-17T10:41:26.597Z,99740.59
2023-01-17T10:46:36.521Z,99743.03
2023-01-17T10:52:00.422Z,99737.31
2023-01-17T10:57:05.667Z,99751.53
2023-01-17T11:02:16.529Z,99746.09
2023-01-17T11:07:21.804Z,99776.41
2023-01-17T11:12:30.943Z,99783.34
2023-01-17T11:17:35.153Z,99788.69
2023-01-17T11:22:38.840Z,99792.03
2023-01-17T11:27:44.552Z,99779.84
2023-01-17T11:32:53.983Z,99765.09
2023-01-17T11:38:06.726Z,99755.19
2023-01-17T11:43:23.596Z,99736.22
2023-01-17T11:48:26.707Z,99738.34
2023-01-17T11:53:33.298Z,99727.72
2023-01-17T11:58:41.754Z,99697.16
2023-01-17T12:04:08.258Z,99697.91
2023-01-17T12:09:23.078Z,99709.50
2023-01-17T12:14:35.047Z,99699.28
2023-01-17T12:20:00.976Z,99712.19
2023-01-17T12:25:15.000Z,99705.69
2023-01-17T12:30:38.133Z,99687.63
2023-01-17T12:35:46.510Z,99710.97
2023-01-17T12:40:55.714Z,99696.91
2023-01-17T12:46:06.102Z,99706.25
2023-01-17T12:51:15.610Z,99692.19
2023-01-17T12:56:25.328Z,99678.56
2023-01-17T13:01:32.910Z,99652.81
2023-01-17T13:06:46.885Z,99651.00
2023-01-17T13:11:55.059Z,99625.31
2023-01-17T13:17:02.022Z,99612.97
2023-01-17T13:22:08.845Z,99596.09
2023-01-17T13:27:40.236Z,99614.31
2023-01-17T13:33:16.437Z,99659.56
2023-01-17T13:38:43.136Z,99653.59
2023-01-17T13:44:08.203Z,99641.94
2023-01-17T13:49:44.204Z,99636.28
2023-01-17T13:54:49.697Z,99621.47
2023-01-17T13:59:53.808Z,99609.91
2023-01-17T14:05:15.316Z,99623.66
2023-01-17T14:10:38.700Z,99603.91
2023-01-17T14:15:51.023Z,99601.91
2023-01-17T14:21:10.009Z,99586.56
2023-01-17T14:26:23.480Z,99581.47
2023-01-17T14:31:28.208Z,99571.31
2023-01-17T14:36:34.675Z,99585.41
2023-01-17T14:41:38.608Z,99573.75
2023-01-17T14:46:42.019Z,99572.25
2023-01-17T14:52:00.275Z,99560.66
2023-01-17T14:57:16.844Z,99550.19
2023-01-17T15:02:20.490Z,99580.25
2023-01-17T15:07:26.765Z,99631.31
2023-01-17T15:12:29.980Z,99638.47
2023-01-17T15:17:33.236Z,99619.66
2023-01-17T15:22:37.896Z,99627.97
2023-01-17T15:27:41.104Z,99613.34
2023-01-17T15:32:49.371Z,99602.34
2023-01-17T15:37:58.326Z,99618.47
2023-01-17T15:43:02.065Z,99621.44
2023-01-17T15:48:40.670Z,99622.53
2023-01-17T15:53:45.282Z,99602.75
2023-01-17T15:58:50.389Z,99623.09
2023-01-17T16:03:55.362Z,99611.44
2023-01-17T16:08:59.868Z,99613.03
2023-01-17T16:14:02.995Z,99611.81
2023-01-17T16:19:07.671Z,99655.50
2023-01-17T16:24:12.754Z,99651.91
2023-01-17T16:29:15.655Z,99648.72
2023-01-17T16:34:18.944Z,99635.59
2023-01-17T16:39:23.499Z,99630.63
2023-01-17T16:44:26.641Z,99626.69
2023-01-17T16:49:32.976Z,99618.09
2023-01-17T16:54:37.489Z,99614.69
2023-01-17T16:59:50.383Z,99605.03
2023-01-17T17:04:54.148Z,99604.72
2023-01-17T17:09:58.763Z,99613.44
2023-01-17T17:15:01.942Z,99610.09
2023-01-17T17:20:06.187Z,99620.81
2023-01-17T17:25:12.002Z,99642.94
2023-01-17T17:30:15.892Z,99638.16
2023-01-17T17:35:19.054Z,99624.81
2023-01-17T17:40:23.607Z,99621.00
2023-01-17T17:45:26.765Z,99606.13
2023-01-17T17:50:29.882Z,99600.50
2023-01-17T17:55:35.273Z,99607.72
2023-01-17T18:00:38.404Z,99613.84
2023-01-17T18:05:41.571Z,99600.56
2023-01-17T18:10:47.176Z,99608.38
2023-01-17T18:15:50.275Z,99631.19
2023-01-17T18:20:53.434Z,99633.19
2023-01-17T18:25:58.000Z,99637.81
2023-01-17T18:31:06.431Z,99640.50
2023-01-17T18:36:12.138Z,99623.78
2023-01-17T18:41:18.844Z,99636.53
2023-01-17T18:46:22.005Z,99657.59
2023-01-17T18:51:25.930Z,99648.13
2023-01-17T18:56:31.255Z,99672.78
2023-01-17T19:01:36.405Z,99674.09
2023-01-17T19:06:41.411Z,99675.66
2023-01-17T19:11:47.616Z,99667.47
2023-01-17T19:16:50.893Z,99664.78
2023-01-17T19:21:54.065Z,99691.44
2023-01-17T19:26:58.597Z,99685.78
2023-01-17T19:32:01.936Z,99680.31
2023-01-17T19:37:06.164Z,99681.66
2023-01-17T19:42:15.555Z,99671.16
2023-01-17T19:47:18.766Z,99664.66
2023-01-17T19:52:24.135Z,99655.63
2023-01-17T19:57:34.803Z,99688.16
2023-01-17T20:02:38.861Z,99721.94
2023-01-17T20:07:41.987Z,99718.69
2023-01-17T20:12:46.557Z,99709.97
2023-01-17T20:17:49.670Z,99678.03
2023-01-17T20:22:53.803Z,99677.25
2023-01-17T20:27:58.771Z,99693.97
2023-01-17T20:33:01.826Z,99734.69
2023-01-17T20:38:04.960Z,99721.44
2023-01-17T20:43:10.130Z,99728.06
2023-01-17T20:48:12.953Z,99718.25
2023-01-17T20:53:16.225Z,99746.34
2023-01-17T20:58:22.257Z,99777.06
2023-01-17T21:03:28.870Z,99793.91
2023-01-17T21:08:32.741Z,99777.03
2023-01-17T21:13:37.584Z,99766.63
2023-01-17T21:18:40.795Z,99764.13
2023-01-17T21:23:44.470Z,99769.59
2023-01-17T21:28:50.825Z,99759.22
2023-01-17T21:33:55.550Z,99755.47
2023-01-17T21:39:00.271Z,99750.94
2023-01-17T21:44:08.078Z,99759.84
2023-01-17T21:49:12.274Z,99769.59
2023-01-17T21:54:15.495Z,99777.69
2023-01-17T21:59:20.483Z,99783.16
2023-01-17T22:04:24.768Z,99783.03
2023-01-17T22:09:28.018Z,99777.09
2023-01-17T22:14:32.847Z,99780.09
2023-01-17T22:19:36.174Z,99782.75
2023-01-17T22:24:40.499Z,99777.41
2023-01-17T22:29:45.176Z,99781.69
2023-01-17T22:34:48.702Z,99798.53
2023-01-17T22:39:51.928Z,99762.66
2023-01-17T22:44:56.626Z,99793.34
2023-01-17T22:50:00.041Z,99789.41
2023-01-17T22:55:03.355Z,99844.06
2023-01-17T23:00:14.743Z,99887.25
2023-01-17T23:05:18.218Z,99854.19
2023-01-17T23:10:35.322Z,99840.25
2023-01-17T23:15:57.666Z,99840.69
2023-01-17T23:21:00.953Z,99853.06
2023-01-17T23:26:04.393Z,99863.28
2023-01-17T23:31:11.121Z,99879.69
2023-01-17T23:36:14.376Z,99842.31
2023-01-17T23:41:34.954Z,99843.19
2023-01-17T23:46:39.625Z,99848.75
2023-01-17T23:51:42.831Z,99850.19
2023-01-17T23:56:46.286Z,99845.81
